Time;durP1;ratioP1;P1;durP2;ratioP2;P2;SDS_P1;SDS_P2;PMS_P1;PMS_P2;Temp;Humidity;BMP_temperature;BMP_pressure;BME280_temperature;BME280_humidity;BME280_pressure;Samples;Min_cycle;Max_cycle;Signal;HPM_P1;HPM_P2
2023/04/14 00:00:00;;;;;;;4.75;1.75;;;;;;;-0.93;100.00;92185.53;2072146;28;20489;-84
2023/04/14 00:01:02;;;;;;;2.20;1.85;;;;;;;-0.97;100.00;92184.75;2082857;28;20494;-83
2023/04/14 00:02:05;;;;;;;2.90;1.80;;;;;;;-0.87;100.00;92184.09;2080948;28;20021;-83
2023/04/14 00:03:09;;;;;;;2.75;1.58;;;;;;;-0.93;100.00;92188.91;2078218;28;20041;-85
2023/04/14 00:04:10;;;;;;;1.70;1.60;;;;;;;-0.93;100.00;92185.53;2076935;28;20060;-81
2023/04/14 00:05:14;;;;;;;2.55;1.45;;;;;;;-0.95;100.00;92183.28;2080846;28;20509;-84
2023/04/14 00:06:16;;;;;;;2.72;1.85;;;;;;;-1.02;100.00;92183.97;2069473;28;20038;-82
2023/04/14 00:07:20;;;;;;;3.42;2.00;;;;;;;-1.01;100.00;92187.34;2077615;28;20034;-83
2023/04/14 00:08:21;;;;;;;3.28;1.67;;;;;;;-0.98;100.00;92185.88;2080138;28;20024;-84
2023/04/14 00:09:22;;;;;;;4.43;1.83;;;;;;;-1.01;100.00;92187.34;2067340;28;20140;-84
2023/04/14 00:10:27;;;;;;;6.05;1.75;;;;;;;-1.05;100.00;92178.75;2084555;28;20180;-83
2023/04/14 00:11:40;;;;;;;3.42;1.77;;;;;;;-1.02;100.00;92183.22;2092526;28;20490;-83
2023/04/14 00:12:46;;;;;;;3.97;1.80;;;;;;;-1.03;100.00;92179.88;2094459;28;20025;-83
2023/04/14 00:13:56;;;;;;;2.80;1.65;;;;;;;-0.94;100.00;92186.66;2085040;28;20083;-81
2023/04/14 00:15:02;;;;;;;2.90;1.67;;;;;;;-0.90;100.00;92190.06;2087014;28;20040;-85
2023/04/14 00:16:03;;;;;;;3.05;1.80;;;;;;;-0.90;100.00;92190.06;2085667;28;20576;-85
2023/04/14 00:17:07;;;;;;;4.80;2.10;;;;;;;-0.96;100.00;92184.41;2076457;28;20056;-82
2023/04/14 00:18:08;;;;;;;3.33;1.67;;;;;;;-0.95;100.00;92185.16;2076825;28;20072;-84
2023/04/14 00:19:09;;;;;;;5.30;2.00;;;;;;;-0.97;100.00;92182.88;2068627;28;20033;-83
2023/04/14 00:20:11;;;;;;;2.70;1.80;;;;;;;-0.97;100.00;92182.13;2084800;28;20112;-82
2023/04/14 00:21:12;;;;;;;3.97;1.67;;;;;;;-0.97;100.00;92179.50;2087378;28;20083;-84
2023/04/14 00:22:20;;;;;;;2.58;1.77;;;;;;;-1.04;100.00;92182.88;2077770;28;20025;-85
2023/04/14 00:23:21;;;;;;;6.63;2.08;;;;;;;-1.10;100.00;92177.22;2078327;28;20025;-82
2023/04/14 00:24:22;;;;;;;4.75;2.00;;;;;;;-1.07;100.00;92173.84;2084664;28;20395;-87
2023/04/14 00:25:27;;;;;;;3.92;1.77;;;;;;;-1.10;100.00;92174.59;2086490;28;20029;-82
2023/04/14 00:26:33;;;;;;;4.95;1.85;;;;;;;-1.07;100.00;92181.72;2073221;28;20390;-84
2023/04/14 00:27:39;;;;;;;3.88;1.40;;;;;;;-1.04;100.00;92180.25;2071025;28;20049;-84
2023/04/14 00:28:42;;;;;;;4.03;2.10;;;;;;;-0.99;100.00;92184.38;2071954;28;20036;-84
2023/04/14 00:29:49;;;;;;;6.18;2.35;;;;;;;-1.04;100.00;92177.63;2077881;28;20434;-85
2023/04/14 00:30:53;;;;;;;5.13;1.92;;;;;;;-1.05;100.00;92183.97;2086211;28;20033;-83
2023/04/14 00:31:58;;;;;;;8.20;1.83;;;;;;;-0.96;100.00;92187.03;2084267;28;20032;-85
2023/04/14 00:33:00;;;;;;;5.18;1.65;;;;;;;-1.02;100.00;92178.00;2088225;28;20025;-84
2023/04/14 00:34:01;;;;;;;5.88;1.73;;;;;;;-1.04;100.00;92181.00;2075749;28;20371;-84
2023/04/14 00:35:05;;;;;;;9.20;2.00;;;;;;;-1.11;100.00;92178.31;2088773;28;20029;-83
2023/04/14 00:36:09;;;;;;;4.00;1.73;;;;;;;-1.10;100.00;92179.06;2088135;28;20024;-84
2023/04/14 00:37:10;;;;;;;5.65;1.92;;;;;;;-1.10;100.00;92179.06;2076444;28;20302;-83
2023/04/14 00:38:11;;;;;;;9.23;2.63;;;;;;;-1.10;100.00;92176.44;2084874;28;20017;-85
2023/04/14 00:39:12;;;;;;;6.35;1.88;;;;;;;-1.13;100.00;92187.69;2085501;28;20542;-85
2023/04/14 00:40:14;;;;;;;7.80;1.80;;;;;;;-1.11;100.00;92186.19;2075844;28;20516;-82
2023/04/14 00:41:15;;;;;;;5.50;1.70;;;;;;;-1.11;100.00;92180.94;2084000;28;20032;-82
2023/04/14 00:42:16;;;;;;;3.83;1.73;;;;;;;-1.07;100.00;92192.19;2093299;28;20413;-84
2023/04/14 00:43:20;;;;;;;6.85;2.00;;;;;;;-1.08;100.00;92185.44;2091819;28;20623;-83
2023/04/14 00:44:22;;;;;;;6.18;2.20;;;;;;;-1.14;100.00;92176.44;2085409;28;20567;-82
2023/04/14 00:45:24;;;;;;;4.78;1.67;;;;;;;-1.19;100.00;92182.00;2085759;28;20162;-83
2023/04/14 00:46:26;;;;;;;7.65;2.10;;;;;;;-1.19;100.00;92181.25;2083814;28;20090;-84
2023/04/14 00:47:27;;;;;;;9.50;1.98;;;;;;;-1.23;100.00;92177.84;2079638;28;20029;-83
2023/04/14 00:48:28;;;;;;;4.40;2.03;;;;;;;-1.24;100.00;92179.72;2072429;28;20042;-84
2023/04/14 00:49:30;;;;;;;6.07;1.73;;;;;;;-1.16;100.00;92183.91;2072514;28;20060;-82
2023/04/14 00:50:32;;;;;;;4.45;1.88;;;;;;;-1.19;100.00;92179.38;2077739;28;20045;-81
2023/04/14 00:51:35;;;;;;;5.20;1.80;;;;;;;-1.19;100.00;92186.50;2076119;28;20128;-85
2023/04/14 00:52:38;;;;;;;7.10;2.25;;;;;;;-1.14;100.00;92184.31;2080875;28;20029;-81
2023/04/14 00:53:39;;;;;;;9.07;2.00;;;;;;;-1.16;100.00;92189.16;2096229;28;20091;-82
2023/04/14 00:54:43;;;;;;;5.55;1.85;;;;;;;-1.14;100.00;92181.69;2084590;28;20161;-85
2023/04/14 00:55:45;;;;;;;4.57;2.08;;;;;;;-1.20;100.00;92190.97;2077956;28;20756;-83
2023/04/14 00:56:49;;;;;;;6.50;1.92;;;;;;;-1.20;100.00;92183.13;2077002;28;20038;-83
2023/04/14 00:57:50;;;;;;;11.32;2.28;;;;;;;-1.18;100.00;92188.78;2094522;28;20029;-86
2023/04/14 00:58:52;;;;;;;4.90;1.60;;;;;;;-1.20;100.00;92190.25;2082596;28;20021;-83
2023/04/14 00:59:53;;;;;;;7.53;2.53;;;;;;;-1.23;100.00;92193.56;2077336;28;20030;-85
2023/04/14 01:00:55;;;;;;;8.90;2.03;;;;;;;-1.22;100.00;92198.47;2077524;28;20041;-82
2023/04/14 01:01:58;;;;;;;5.60;2.05;;;;;;;-1.23;100.00;92191.69;2085145;28;20025;-83
2023/04/14 01:02:59;;;;;;;6.25;2.25;;;;;;;-1.21;100.00;92186.88;2073672;28;20108;-83
2023/04/14 01:04:01;;;;;;;7.95;1.73;;;;;;;-1.22;100.00;92188.00;2067838;28;20129;-81
2023/04/14 01:05:03;;;;;;;7.40;2.10;;;;;;;-1.18;100.00;92188.03;2085586;28;20033;-83
2023/04/14 01:06:04;;;;;;;6.32;1.65;;;;;;;-1.17;100.00;92185.03;2085205;28;20028;-84
2023/04/14 01:07:06;;;;;;;6.60;1.80;;;;;;;-1.20;100.00;92183.13;2081312;28;20422;-81
2023/04/14 01:08:07;;;;;;;4.53;1.73;;;;;;;-1.18;100.00;92193.25;2076541;28;20030;-83
2023/04/14 01:09:08;;;;;;;9.05;1.88;;;;;;;-1.16;100.00;92194.38;2075393;28;20505;-83
2023/04/14 01:10:10;;;;;;;10.00;2.00;;;;;;;-1.18;100.00;92199.25;2063857;28;20022;-83
2023/04/14 01:11:39;;;;;;;6.90;1.88;;;;;;;-1.16;100.00;92189.16;2082134;28;20412;-84
2023/04/14 01:13:05;;;;;;;5.80;1.75;;;;;;;-1.14;100.00;92197.41;2088216;28;20484;-82
2023/04/14 01:14:15;;;;;;;5.50;1.50;;;;;;;-1.15;100.00;92195.88;2077466;28;20053;-84
2023/04/14 01:15:42;;;;;;;4.38;1.77;;;;;;;-1.05;100.00;92197.84;2074962;28;20095;-82
2023/04/14 01:16:44;;;;;;;4.53;1.88;;;;;;;-1.15;100.00;92195.88;2079785;28;20033;-82
2023/04/14 01:18:11;;;;;;;4.13;1.60;;;;;;;-1.14;100.00;92201.88;2076163;28;20507;-81
2023/04/14 01:19:37;;;;;;;4.40;1.60;;;;;;;-1.17;100.00;92198.13;2076481;28;20381;-82
2023/04/14 01:20:42;;;;;;;4.57;1.73;;;;;;;-1.13;100.00;92200.78;2070826;28;20037;-83
2023/04/14 01:21:49;;;;;;;6.22;1.77;;;;;;;-1.11;100.00;92204.53;2076935;28;20477;-83
2023/04/14 01:23:14;;;;;;;7.32;2.50;;;;;;;-1.11;100.00;92201.91;2083742;28;20040;-82
2023/04/14 01:24:15;;;;;;;4.47;1.60;;;;;;;-1.08;100.00;92197.81;2088744;28;20500;-86
2023/04/14 01:25:25;;;;;;;6.07;1.70;;;;;;;-1.15;100.00;92200.38;2088790;28;20575;-85
2023/04/14 01:26:32;;;;;;;3.33;1.73;;;;;;;-1.13;100.00;92209.41;2077363;28;20477;-85
2023/04/14 01:28:00;;;;;;;8.60;2.00;;;;;;;-0.98;100.00;92201.63;2082275;28;20040;-82
2023/04/14 01:29:01;;;;;;;4.43;1.92;;;;;;;-1.06;100.00;92200.81;2089330;28;20393;-83
2023/04/14 01:30:27;;;;;;;4.85;1.73;;;;;;;-1.10;100.00;92202.66;2081605;28;20083;-83
2023/04/14 01:31:46;;;;;;;3.13;1.50;;;;;;;-1.11;100.00;92204.53;2083602;28;20515;-82
2023/04/14 01:32:52;;;;;;;5.07;1.80;;;;;;;-1.15;100.00;92206.38;2081940;28;20029;-83
2023/04/14 01:34:12;;;;;;;8.02;2.28;;;;;;;-1.17;100.00;92208.63;2087696;28;20036;-84
2023/04/14 01:35:19;;;;;;;6.43;2.05;;;;;;;-1.21;100.00;92212.34;2095777;28;20024;-84
2023/04/14 01:36:27;;;;;;;5.80;1.80;;;;;;;-1.15;100.00;92209.00;2086899;28;20025;-83
2023/04/14 01:37:33;;;;;;;4.30;1.58;;;;;;;-1.15;100.00;92211.63;2086301;28;20514;-82
2023/04/14 01:38:36;;;;;;;6.38;2.15;;;;;;;-1.15;100.00;92211.63;2088047;28;20427;-83
2023/04/14 01:39:41;;;;;;;6.25;1.67;;;;;;;-1.12;100.00;92218.00;2073273;28;20030;-83
2023/04/14 01:40:50;;;;;;;8.05;1.95;;;;;;;-1.14;100.00;92217.59;2086413;28;20039;-83
2023/04/14 01:41:57;;;;;;;5.13;1.75;;;;;;;-1.18;100.00;92214.25;2086242;28;20534;-83
2023/04/14 01:43:07;;;;;;;6.63;1.85;;;;;;;-1.16;100.00;92215.38;2078170;28;20025;-84
2023/04/14 01:44:09;;;;;;;;;;;;;;;-1.14;100.00;92215.00;2075599;28;20108;-82
2023/04/14 01:45:19;;;;;;;4.93;1.77;;;;;;;-1.20;100.00;92217.19;2085632;28;19913;-82
2023/04/14 01:46:23;;;;;;;7.72;1.88;;;;;;;-1.21;100.00;92213.09;2084535;28;20028;-84
2023/04/14 01:47:25;;;;;;;6.22;1.75;;;;;;;-1.25;100.00;92211.56;2081150;28;20025;-82
2023/04/14 01:48:28;;;;;;;5.10;1.85;;;;;;;-1.20;100.00;92219.81;2080239;28;20382;-81
2023/04/14 01:49:32;;;;;;;6.82;2.08;;;;;;;-1.19;100.00;92215.34;2085129;28;20044;-80
2023/04/14 01:50:36;;;;;;;5.28;1.85;;;;;;;-1.19;100.00;92216.09;2081289;28;20026;-82
2023/04/14 01:51:42;;;;;;;5.35;1.98;;;;;;;-1.24;100.00;92221.66;2078554;28;20560;-84
2023/04/14 01:52:52;;;;;;;8.23;1.70;;;;;;;-1.23;100.00;92228.41;2078102;28;20033;-83
2023/04/14 01:53:57;;;;;;;4.30;1.80;;;;;;;-1.23;100.00;92227.66;2073520;28;20038;-84
2023/04/14 01:55:04;;;;;;;5.03;1.55;;;;;;;-1.27;100.00;92227.66;2064953;28;20478;-82
2023/04/14 01:56:08;;;;;;;3.85;1.52;;;;;;;-1.35;100.00;92228.72;2070089;28;20469;-83
2023/04/14 01:57:13;;;;;;;5.15;1.65;;;;;;;-1.34;100.00;92230.97;2084782;28;20025;-84
2023/04/14 01:58:17;;;;;;;5.20;1.65;;;;;;;-1.32;100.00;92231.38;2092525;28;20499;-83
2023/04/14 01:59:22;;;;;;;4.05;1.75;;;;;;;-1.33;100.00;92237.69;2082294;28;20033;-83
2023/04/14 02:00:26;;;;;;;7.50;1.75;;;;;;;-1.34;100.00;92233.56;2083815;28;20528;-83
2023/04/14 02:01:29;;;;;;;8.57;2.15;;;;;;;-1.37;100.00;92233.53;2083279;28;20444;-85
2023/04/14 02:02:32;;;;;;;4.78;1.60;;;;;;;-1.40;100.00;92232.41;2083581;28;20477;-82
2023/04/14 02:03:35;;;;;;;6.70;2.00;;;;;;;-1.38;100.00;92239.91;2079839;28;20516;-84
2023/04/14 02:04:39;;;;;;;7.57;1.92;;;;;;;-1.21;100.00;92235.94;2079931;28;20767;-82
2023/04/14 02:05:42;;;;;;;4.50;1.48;;;;;;;-1.21;100.00;92241.91;2076526;28;20068;-85
2023/04/14 02:06:45;;;;;;;7.47;1.63;;;;;;;-1.26;100.00;92237.00;2068259;28;20455;-82
2023/04/14 02:07:51;;;;;;;7.47;1.98;;;;;;;-1.36;100.00;92235.81;2070252;28;20034;-85
2023/04/14 02:08:56;;;;;;;7.60;1.80;;;;;;;-1.35;100.00;92239.94;2075322;28;20049;-84
2023/04/14 02:10:02;;;;;;;6.00;1.60;;;;;;;-1.42;100.00;92245.13;2079682;28;20500;-83
2023/04/14 02:11:07;;;;;;;6.50;1.65;;;;;;;-1.42;100.00;92241.75;2084391;28;20435;-86
2023/04/14 02:12:11;;;;;;;5.32;1.83;;;;;;;-1.46;100.00;92243.56;2087269;28;20492;-81
2023/04/14 02:13:14;;;;;;;6.15;2.05;;;;;;;-1.44;100.00;92249.22;2075910;28;20333;-82
2023/04/14 02:14:18;;;;;;;6.20;1.60;;;;;;;-1.51;100.00;92247.28;2076414;28;20033;-82
2023/04/14 02:15:23;;;;;;;8.80;2.20;;;;;;;-1.56;100.00;92242.38;2076296;28;20402;-84
2023/04/14 02:16:25;;;;;;;3.78;1.48;;;;;;;-1.53;100.00;92242.41;2078756;28;20327;-85
2023/04/14 02:17:29;;;;;;;7.32;2.20;;;;;;;-1.60;100.00;92237.09;2087426;28;20024;-86
2023/04/14 02:20:22;;;;;;;5.47;1.80;;;;;;;-1.52;100.00;92238.66;2136722;27;20197;-80
2023/04/14 02:21:27;;;;;;;8.88;1.50;;;;;;;-1.55;100.00;92241.25;2123971;27;20026;-81
2023/04/14 02:22:35;;;;;;;5.35;1.60;;;;;;;-1.54;100.00;92240.91;2107675;28;20082;-81
2023/04/14 02:23:44;;;;;;;5.60;1.70;;;;;;;-1.54;100.00;92237.50;2104785;27;20043;-81
2023/04/14 02:24:47;;;;;;;6.95;2.00;;;;;;;-1.52;100.00;92240.53;2106840;28;20039;-81
2023/04/14 02:26:18;;;;;;;7.35;2.03;;;;;;;-1.53;100.00;92231.19;2107500;27;20070;-82
2023/04/14 02:27:38;;;;;;;6.30;1.98;;;;;;;-1.48;100.00;92235.34;2113115;28;20088;-81
2023/04/14 02:37:48;;;;;;;10.35;1.92;;;;;;;-1.62;100.00;92226.25;2072388;28;20457;-81
2023/04/14 02:39:24;;;;;;;;;;;;;;;;;;;;;
2023/04/14 02:41:08;;;;;;;5.60;1.90;;;;;;;-1.59;100.00;92233.34;2083408;28;20044;-81
2023/04/14 02:57:39;;;;;;;6.68;1.27;;;;;;;-1.70;100.00;92226.53;2006043;29;20038;-82
2023/04/14 03:00:57;;;;;;;4.72;1.75;;;;;;;-1.78;100.00;92228.31;2013231;29;20068;-80
2023/04/14 03:02:01;;;;;;;6.78;2.08;;;;;;;-1.78;100.00;92221.22;2009254;29;20045;-80
2023/04/14 03:03:05;;;;;;;6.88;2.13;;;;;;;-1.72;100.00;92226.88;2009900;29;20471;-80
2023/04/14 03:04:08;;;;;;;7.40;1.90;;;;;;;-1.71;100.00;92228.41;2014466;29;20041;-80
2023/04/14 03:05:10;;;;;;;6.70;1.95;;;;;;;-1.67;100.00;92225.78;2046714;28;20762;-80
2023/04/14 03:06:15;;;;;;;9.90;1.98;;;;;;;-1.77;100.00;92235.81;2066211;28;20034;-80
2023/04/14 03:07:26;;;;;;;7.88;1.60;;;;;;;-1.76;100.00;92233.94;2091123;27;20167;-79
2023/04/14 03:08:28;;;;;;;6.75;2.17;;;;;;;-1.89;100.00;92233.47;2109162;28;20123;-79
2023/04/14 03:09:30;;;;;;;4.72;1.80;;;;;;;-1.83;100.00;92231.28;2098408;28;20028;-79
2023/04/14 03:10:33;;;;;;;5.80;1.98;;;;;;;-1.80;100.00;92233.16;2107157;28;20040;-81
2023/04/14 03:11:37;;;;;;;6.68;1.63;;;;;;;-1.80;100.00;92233.16;2115291;27;20584;-80
2023/04/14 03:12:43;;;;;;;5.50;1.58;;;;;;;-1.81;100.00;92236.88;2110987;28;20032;-80
2023/04/14 03:13:47;;;;;;;5.43;1.45;;;;;;;-1.79;100.00;92232.06;2112439;27;20032;-79
2023/04/14 03:14:50;;;;;;;9.63;2.38;;;;;;;-1.80;100.00;92230.53;2126330;27;20039;-80
2023/04/14 03:15:53;;;;;;;8.57;1.85;;;;;;;-1.92;100.00;92226.31;2115218;28;20051;-80
2023/04/14 03:17:20;;;;;;;;;;;;;;;;;;;;;
2023/04/14 03:20:44;;;;;;;8.23;1.90;;;;;;;-1.90;100.00;92233.81;2114251;27;20077;-80
2023/04/14 03:28:31;;;;;;;6.15;1.80;;;;;;;-1.94;100.00;92230.41;2106569;22;20044;-83
2023/04/14 03:29:44;;;;;;;9.07;1.60;;;;;;;-1.96;100.00;92230.00;2079333;28;20099;-85
2023/04/14 03:30:50;;;;;;;5.75;1.70;;;;;;;-1.96;100.00;92228.16;2068282;28;20141;-86
2023/04/14 03:31:58;;;;;;;11.80;2.00;;;;;;;-2.04;100.00;92231.81;2061117;28;20047;-86
2023/04/14 03:33:11;;;;;;;6.65;2.00;;;;;;;-1.99;100.00;92235.97;2075994;28;20030;-82
2023/04/14 03:34:14;;;;;;;7.68;1.88;;;;;;;-2.00;100.00;92224.00;2080395;28;20511;-82
2023/04/14 03:35:18;;;;;;;5.85;1.75;;;;;;;-2.00;100.00;92227.34;2073162;28;20435;-86
2023/04/14 03:36:20;;;;;;;9.23;1.95;;;;;;;-2.04;100.00;92222.06;2070431;28;20089;-85
2023/04/14 03:37:25;;;;;;;8.02;2.20;;;;;;;-2.05;100.00;92217.97;2063928;28;20038;-84
2023/04/14 03:38:27;;;;;;;6.55;1.80;;;;;;;-2.08;100.00;92223.91;2065505;28;20499;-83
2023/04/14 03:39:31;;;;;;;5.18;2.00;;;;;;;-2.05;100.00;92225.81;2073873;28;20022;-83
2023/04/14 03:40:34;;;;;;;7.30;2.40;;;;;;;-2.04;100.00;92223.94;2076745;28;20036;-84
2023/04/14 03:41:46;;;;;;;6.10;2.00;;;;;;;-2.05;100.00;92223.19;2077308;28;20075;-84
2023/04/14 03:42:50;;;;;;;5.32;1.90;;;;;;;-2.08;100.00;92223.16;2072397;28;20640;-84
2023/04/14 03:43:53;;;;;;;4.85;1.85;;;;;;;-2.10;100.00;92217.53;2069162;28;20034;-83
2023/04/14 03:44:57;;;;;;;8.00;2.25;;;;;;;-2.06;100.00;92224.31;2068583;28;20482;-84
2023/04/14 03:45:59;;;;;;;6.22;1.73;;;;;;;-2.05;100.00;92222.44;2069445;28;20032;-85
2023/04/14 03:47:02;;;;;;;4.20;2.15;;;;;;;-2.11;100.00;92221.25;2068157;28;20026;-85
2023/04/14 03:48:06;;;;;;;5.78;1.77;;;;;;;-2.12;100.00;92217.88;2068452;28;20103;-87
2023/04/14 03:49:10;;;;;;;5.00;1.75;;;;;;;-2.10;100.00;92215.66;2065381;28;20029;-87
2023/04/14 03:50:14;;;;;;;11.05;2.30;;;;;;;-2.15;100.00;92215.22;2068352;28;20534;-84
2023/04/14 03:51:16;;;;;;;5.70;1.90;;;;;;;-2.15;100.00;92212.59;2059941;28;20034;-82
2023/04/14 03:52:21;;;;;;;6.22;2.17;;;;;;;-2.14;100.00;92209.63;2077865;28;20405;-84
2023/04/14 03:53:24;;;;;;;4.75;1.70;;;;;;;-2.15;100.00;92213.38;2076409;28;20077;-86
2023/04/14 03:54:29;;;;;;;6.47;1.85;;;;;;;-2.10;100.00;92212.28;2076697;28;20116;-86
2023/04/14 03:55:32;;;;;;;3.15;1.95;;;;;;;-2.11;100.00;92214.16;2076791;28;20021;-83
2023/04/14 03:56:40;;;;;;;5.97;2.20;;;;;;;-2.16;100.00;92216.34;2072397;28;20089;-85
2023/04/14 03:57:42;;;;;;;6.47;2.03;;;;;;;-2.24;100.00;92214.75;2073862;28;20141;-86
2023/04/14 03:58:46;;;;;;;9.50;2.05;;;;;;;-2.08;100.00;92210.06;2067269;28;20035;-85
2023/04/14 03:59:49;;;;;;;7.75;2.05;;;;;;;-2.11;100.00;92216.78;2065225;28;20384;-84
2023/04/14 04:00:52;;;;;;;5.82;2.60;;;;;;;-2.07;100.00;92220.16;2071814;28;20069;-85
2023/04/14 04:01:55;;;;;;;5.75;2.28;;;;;;;-2.13;100.00;92215.63;2064174;28;20026;-86
2023/04/14 04:02:57;;;;;;;8.55;2.20;;;;;;;-2.08;100.00;92223.16;2064233;28;20026;-86
2023/04/14 04:04:01;;;;;;;5.28;2.28;;;;;;;-2.06;100.00;92216.47;2080212;28;20029;-85
2023/04/14 04:05:03;;;;;;;6.22;2.10;;;;;;;-2.07;100.00;92219.41;2072298;28;20029;-84
2023/04/14 04:06:06;;;;;;;5.93;2.00;;;;;;;-2.11;100.00;92221.25;2063963;28;20031;-85
2023/04/14 04:07:12;;;;;;;10.18;2.45;;;;;;;-2.12;100.00;92223.09;2063764;28;20029;-85
2023/04/14 04:08:14;;;;;;;6.22;2.10;;;;;;;-2.12;100.00;92224.97;2072969;28;20488;-85
2023/04/14 04:09:18;;;;;;;9.90;2.25;;;;;;;-2.09;100.00;92222.41;2076295;28;20032;-85
2023/04/14 04:10:22;;;;;;;6.68;2.45;;;;;;;-2.10;100.00;92223.53;2071770;28;20026;-83
2023/04/14 04:11:26;;;;;;;7.10;1.70;;;;;;;-2.10;100.00;92226.13;2064556;28;20553;-82
2023/04/14 04:12:28;;;;;;;5.72;2.20;;;;;;;-2.14;100.00;92224.59;2063964;28;20026;-84
2023/04/14 04:13:31;;;;;;;6.80;1.77;;;;;;;-2.08;100.00;92231.75;2067447;28;20030;-83
2023/04/14 04:14:35;;;;;;;11.15;2.03;;;;;;;-2.10;100.00;92233.25;2072917;28;20026;-86
2023/04/14 04:15:38;;;;;;;10.90;2.70;;;;;;;-2.10;100.00;92234.00;2075949;28;20131;-82
2023/04/14 04:16:42;;;;;;;6.65;2.03;;;;;;;-2.12;100.00;92233.56;2068886;28;20205;-83
2023/04/14 04:17:46;;;;;;;5.57;1.80;;;;;;;-2.07;100.00;92235.88;2085232;28;20461;-85
2023/04/14 04:18:49;;;;;;;9.05;2.22;;;;;;;-2.15;100.00;92229.06;2077479;28;20029;-82
2023/04/14 04:19:56;;;;;;;5.32;1.92;;;;;;;-2.08;100.00;92231.75;2068637;28;20025;-82
2023/04/14 04:20:59;;;;;;;7.75;2.20;;;;;;;-2.03;100.00;92235.91;2069219;28;20021;-84
2023/04/14 04:22:02;;;;;;;4.18;1.67;;;;;;;-1.96;100.00;92241.25;2066620;28;20041;-84
2023/04/14 04:23:06;;;;;;;6.18;2.42;;;;;;;-1.97;100.00;92228.50;2062704;28;20494;-83
2023/04/14 04:24:09;;;;;;;11.25;3.63;;;;;;;-1.87;100.00;92239.09;2073274;28;20509;-83
2023/04/14 04:25:10;;;;;;;8.90;2.92;;;;;;;-1.92;100.00;92241.28;2069716;28;20120;-84
2023/04/14 04:26:12;;;;;;;12.85;2.80;;;;;;;-1.95;100.00;92240.13;2061614;28;20155;-84
2023/04/14 04:27:15;;;;;;;7.35;2.88;;;;;;;-2.05;100.00;92243.38;2068860;28;20030;-85
2023/04/14 04:28:17;;;;;;;9.27;2.72;;;;;;;-2.13;100.00;92239.94;2068320;28;20191;-83
2023/04/14 04:29:20;;;;;;;7.85;3.13;;;;;;;-2.18;100.00;92236.88;2060290;28;20031;-82
2023/04/14 04:30:24;;;;;;;5.93;2.97;;;;;;;-2.18;100.00;92244.75;2065265;28;20030;-85
2023/04/14 04:31:27;;;;;;;7.82;2.97;;;;;;;-2.15;100.00;92236.16;2075863;28;20025;-84
2023/04/14 04:32:30;;;;;;;6.72;2.80;;;;;;;-2.15;100.00;92242.16;2069724;28;20438;-84
2023/04/14 04:33:31;;;;;;;5.22;2.40;;;;;;;-2.16;100.00;92247.75;2076038;28;20022;-83
2023/04/14 04:34:34;;;;;;;7.38;2.30;;;;;;;-2.23;100.00;92245.81;2059719;28;20471;-83
2023/04/14 04:35:36;;;;;;;10.13;2.40;;;;;;;-2.18;100.00;92245.50;2068300;28;20036;-84
2023/04/14 04:36:39;;;;;;;8.95;3.25;;;;;;;-2.16;100.00;92243.25;2078760;28;21038;-82
2023/04/14 04:37:42;;;;;;;5.45;2.47;;;;;;;-2.16;100.00;92242.50;2082984;28;20056;-86
2023/04/14 04:38:45;;;;;;;8.10;2.50;;;;;;;-2.19;100.00;92238.00;2073331;28;20400;-86
2023/04/14 04:39:49;;;;;;;7.15;2.30;;;;;;;-2.09;100.00;92245.22;2061976;28;20321;-84
2023/04/14 04:40:54;;;;;;;7.80;2.00;;;;;;;-2.05;100.00;92240.78;2065377;28;20037;-83
2023/04/14 04:42:06;;;;;;;7.93;2.40;;;;;;;-2.13;100.00;92250.41;2071416;28;20029;-85
2023/04/14 04:43:07;;;;;;;7.50;2.60;;;;;;;-2.08;100.00;92247.47;2067845;28;20042;-86
2023/04/14 04:44:10;;;;;;;9.50;2.28;;;;;;;-1.96;100.00;92245.72;2074632;28;20029;-83
2023/04/14 04:45:18;;;;;;;6.70;2.30;;;;;;;-2.13;100.00;92253.03;2087297;28;20027;-82
2023/04/14 04:46:53;;;;;;;7.25;2.00;;;;;;;-2.12;100.00;92253.78;2077637;28;21353;-83
2023/04/14 04:47:55;;;;;;;8.18;2.63;;;;;;;-2.16;100.00;92253.72;2070997;28;20029;-85
2023/04/14 04:48:57;;;;;;;12.88;4.00;;;;;;;-2.23;100.00;92248.44;2072891;28;20035;-84
2023/04/14 04:50:01;;;;;;;7.78;2.78;;;;;;;-2.19;100.00;92254.47;2080871;28;20021;-86
2023/04/14 04:51:05;;;;;;;12.77;3.65;;;;;;;-2.10;100.00;92247.09;2077531;28;20021;-84
2023/04/14 04:52:07;;;;;;;12.52;3.40;;;;;;;-2.12;100.00;92249.28;2070688;28;20053;-84
2023/04/14 04:53:12;;;;;;;10.20;3.25;;;;;;;-2.17;100.00;92243.63;2069381;28;20088;-83
2023/04/14 04:54:15;;;;;;;8.85;3.70;;;;;;;-2.25;100.00;92242.78;2063756;28;20026;-84
2023/04/14 04:55:18;;;;;;;7.75;3.20;;;;;;;-2.20;100.00;92249.56;2071829;28;20037;-86
2023/04/14 04:56:21;;;;;;;8.30;3.00;;;;;;;-2.17;100.00;92257.47;2069845;28;20033;-82
2023/04/14 04:57:25;;;;;;;10.05;3.10;;;;;;;-2.17;100.00;92257.47;2071460;28;20034;-83
2023/04/14 04:58:26;;;;;;;9.27;3.00;;;;;;;-2.19;100.00;92253.72;2071609;28;20021;-84
2023/04/14 04:59:28;;;;;;;10.02;2.90;;;;;;;-2.29;100.00;92257.69;2064914;28;20014;-84
2023/04/14 05:00:30;;;;;;;10.38;2.75;;;;;;;-2.28;100.00;92251.38;2071208;28;20053;-85
2023/04/14 05:01:33;;;;;;;6.43;2.67;;;;;;;-2.23;100.00;92256.28;2070921;28;20021;-85
2023/04/14 05:02:35;;;;;;;7.43;2.58;;;;;;;-2.28;100.00;92257.34;2063469;28;20022;-82
2023/04/14 05:03:36;;;;;;;5.82;2.70;;;;;;;-2.20;100.00;92252.19;2063338;28;20117;-83
2023/04/14 05:04:37;;;;;;;6.15;2.25;;;;;;;-2.18;100.00;92255.22;2075990;28;20112;-85
2023/04/14 05:05:39;;;;;;;7.63;2.53;;;;;;;-2.14;100.00;92262.00;2071192;28;20379;-86
2023/04/14 05:06:41;;;;;;;7.93;2.55;;;;;;;-2.16;100.00;92258.22;2069481;28;20531;-83
2023/04/14 05:07:43;;;;;;;10.32;2.58;;;;;;;-2.20;100.00;92263.41;2059524;28;20414;-83
2023/04/14 05:08:46;;;;;;;9.68;3.35;;;;;;;-2.20;100.00;92258.16;2067042;28;20422;-84
2023/04/14 05:09:47;;;;;;;11.73;3.17;;;;;;;-2.19;100.00;92258.94;2057786;28;20490;-85
2023/04/14 05:10:50;;;;;;;10.52;2.92;;;;;;;-2.12;100.00;92257.13;2057253;28;20023;-82
2023/04/14 05:11:54;;;;;;;9.38;3.20;;;;;;;-2.11;100.00;92266.53;2064778;28;20036;-83
2023/04/14 05:12:59;;;;;;;9.30;4.20;;;;;;;-2.12;100.00;92265.00;2071558;28;20030;-84
2023/04/14 05:14:05;;;;;;;10.07;4.25;;;;;;;-2.07;100.00;92267.28;2068099;28;20030;-84
2023/04/14 05:15:08;;;;;;;11.23;4.03;;;;;;;-2.13;100.00;92258.25;2064391;28;20506;-83
2023/04/14 05:16:12;;;;;;;11.73;5.22;;;;;;;-2.10;100.00;92262.03;2064031;28;20606;-84
2023/04/14 05:17:13;;;;;;;15.77;5.40;;;;;;;-2.11;100.00;92263.13;2068382;28;20066;-85
2023/04/14 05:18:14;;;;;;;14.55;5.45;;;;;;;-2.08;100.00;92263.16;2067288;28;20022;-82
2023/04/14 05:19:16;;;;;;;14.18;6.80;;;;;;;-2.05;100.00;92257.22;2067381;28;20026;-83
2023/04/14 05:20:17;;;;;;;16.88;7.72;;;;;;;-2.00;100.00;92263.25;2064029;28;20231;-84
2023/04/14 05:21:18;;;;;;;17.05;8.13;;;;;;;-2.03;100.00;92257.63;2058067;28;20383;-85
2023/04/14 05:22:19;;;;;;;17.33;7.97;;;;;;;-1.92;100.00;92257.75;2055864;28;20308;-83
2023/04/14 05:23:21;;;;;;;15.90;8.05;;;;;;;-1.91;100.00;92250.63;2065409;28;20026;-85
2023/04/14 05:24:23;;;;;;;14.27;7.75;;;;;;;-1.87;100.00;92259.28;2057916;28;20054;-83
2023/04/14 05:25:24;;;;;;;18.75;8.57;;;;;;;-1.90;100.00;92260.75;2056507;28;20034;-84
2023/04/14 05:26:25;;;;;;;13.48;7.57;;;;;;;-1.89;100.00;92257.03;2062966;28;20507;-81
2023/04/14 05:27:27;;;;;;;15.43;7.78;;;;;;;-1.87;100.00;92260.03;2063114;28;20521;-82
2023/04/14 05:28:28;;;;;;;17.40;7.00;;;;;;;-1.91;100.00;92259.25;2072529;28;20046;-81
2023/04/14 05:29:30;;;;;;;16.05;7.38;;;;;;;-1.83;100.00;92263.44;2063904;28;20057;-84
2023/04/14 05:30:31;;;;;;;17.48;7.45;;;;;;;-1.78;100.00;92265.00;2065619;28;20049;-81
2023/04/14 05:31:32;;;;;;;14.68;4.93;;;;;;;-1.63;100.00;92263.25;2078231;28;20024;-82
2023/04/14 05:32:34;;;;;;;11.05;4.45;;;;;;;-1.56;100.00;92271.19;2073103;28;20072;-83
2023/04/14 05:33:35;;;;;;;11.73;3.80;;;;;;;-1.45;100.00;92264.16;2063922;28;20033;-84
2023/04/14 05:34:36;;;;;;;17.08;4.60;;;;;;;-1.40;100.00;92265.75;2064089;28;20125;-84
2023/04/14 05:35:37;;;;;;;12.52;4.68;;;;;;;-1.35;100.00;92263.53;2072909;28;20022;-83
2023/04/14 05:36:38;;;;;;;10.85;4.35;;;;;;;-1.29;100.00;92266.56;2085413;28;20660;-84
2023/04/14 05:37:40;;;;;;;11.80;3.67;;;;;;;-1.29;100.00;92266.56;2075488;28;20128;-85
2023/04/14 05:38:42;;;;;;;14.52;5.25;;;;;;;-1.29;100.00;92263.94;2073012;28;20084;-83
2023/04/14 05:39:43;;;;;;;12.48;6.13;;;;;;;-1.31;100.00;92264.31;2066906;28;20464;-82